createdAt,value
2023-03-11T00:02:58.328Z,98151.63
2023-03-11T00:06:02.608Z,98141.16
2023-03-11T00:09:05.182Z,98147.22
2023-03-11T00:12:08.084Z,98140.06
2023-03-11T00:15:11.076Z,98131.94
2023-03-11T00:18:13.880Z,98133.87
2023-03-11T00:21:17.608Z,98132.16
2023-03-11T00:24:20.171Z,98123.41
2023-03-11T00:27:22.326Z,98136.50
2023-03-11T00:30:25.580Z,98138.16
2023-03-11T00:33:28.177Z,98119.75
2023-03-11T00:36:36.382Z,98126.09
2023-03-11T00:39:39.014Z,98135.03
2023-03-11T00:42:42.039Z,98120.72
2023-03-11T00:45:45.855Z,98135.84
2023-03-11T00:48:51.469Z,98139.28
2023-03-11T00:51:53.861Z,98130.44
2023-03-11T00:54:58.768Z,98131.81
2023-03-11T00:58:06.669Z,98137.94
2023-03-11T01:01:11.976Z,98142.38
2023-03-11T01:04:15.001Z,98133.31
2023-03-11T01:07:17.520Z,98131.28
2023-03-11T01:10:19.938Z,98135.53
2023-03-11T01:13:22.831Z,98128.13
2023-03-11T01:16:26.818Z,98129.53
2023-03-11T01:19:29.366Z,98127.81
2023-03-11T01:22:31.673Z,98131.38
2023-03-11T01:25:34.909Z,98105.13
2023-03-11T01:28:37.550Z,98119.31
2023-03-11T01:31:40.193Z,98114.16
2023-03-11T01:34:42.594Z,98131.34
2023-03-11T01:37:46.249Z,98111.53
2023-03-11T01:40:50.904Z,98116.25
2023-03-11T01:43:55.281Z,98125.03
2023-03-11T01:47:00.084Z,98119.28
2023-03-11T01:50:07.830Z,98109.63
2023-03-11T01:53:13.213Z,98114.34
2023-03-11T01:56:17.169Z,98127.16
2023-03-11T01:59:27.068Z,98130.19
2023-03-11T02:02:35.152Z,98128.38
2023-03-11T02:05:39.630Z,98133.22
2023-03-11T02:08:44.695Z,98133.47
2023-03-11T02:11:47.666Z,98133.91
2023-03-11T02:14:54.539Z,98152.59
2023-03-11T02:17:59.081Z,98164.53
2023-03-11T02:21:14.034Z,98145.84
2023-03-11T02:24:28.147Z,98144.28
2023-03-11T02:27:35.598Z,98144.00
2023-03-11T02:30:41.807Z,98164.63
2023-03-11T02:33:46.561Z,98134.88
2023-03-11T02:36:49.627Z,98142.97
2023-03-11T02:39:55.390Z,98138.16
2023-03-11T02:43:01.604Z,98142.81
2023-03-11T02:46:06.516Z,98138.41
2023-03-11T02:49:11.348Z,98150.16
2023-03-11T02:52:13.766Z,98151.88
2023-03-11T02:55:18.076Z,98152.00
2023-03-11T02:58:20.382Z,98160.66
2023-03-11T03:01:23.540Z,98151.69
2023-03-11T03:04:26.550Z,98168.88
2023-03-11T03:07:29.570Z,98165.84
2023-03-11T03:10:31.858Z,98190.38
2023-03-11T03:13:34.635Z,98179.22
2023-03-11T03:16:37.056Z,98176.72
2023-03-11T03:19:39.617Z,98194.63
2023-03-11T03:22:43.000Z,98186.31
2023-03-11T03:25:46.652Z,98200.16
2023-03-11T03:28:49.215Z,98217.09
2023-03-11T03:31:51.985Z,98200.16
2023-03-11T03:34:59.163Z,98214.88
2023-03-11T03:38:04.817Z,98215.63
2023-03-11T03:41:07.756Z,98210.69
2023-03-11T03:44:11.941Z,98202.97
2023-03-11T03:47:14.614Z,98197.19
2023-03-11T03:50:17.776Z,98209.87
2023-03-11T03:53:21.205Z,98228.94
2023-03-11T03:56:24.657Z,98223.75
2023-03-11T03:59:27.495Z,98230.50
2023-03-11T04:02:31.206Z,98215.53
2023-03-11T04:05:35.010Z,98226.97
2023-03-11T04:08:37.873Z,98226.69
2023-03-11T04:11:40.511Z,98232.34
2023-03-11T04:14:44.289Z,98236.75
2023-03-11T04:17:47.081Z,98263.59
2023-03-11T04:20:50.069Z,98265.41
2023-03-11T04:23:52.931Z,98284.97
2023-03-11T04:26:55.815Z,98272.44
2023-03-11T04:29:58.586Z,98274.50
2023-03-11T04:33:01.582Z,98283.59
2023-03-11T04:36:07.582Z,98276.88
2023-03-11T04:39:11.463Z,98291.44
2023-03-11T04:42:15.259Z,98308.50
2023-03-11T04:45:18.526Z,98295.97
2023-03-11T04:48:22.096Z,98293.75
2023-03-11T04:51:25.724Z,98287.00
2023-03-11T04:54:28.613Z,98281.72
2023-03-11T04:57:30.977Z,98289.56
2023-03-11T05:00:33.935Z,98309.09
2023-03-11T05:03:37.074Z,98308.00
2023-03-11T05:06:40.497Z,98314.31
2023-03-11T05:09:44.133Z,98322.50
2023-03-11T05:12:49.305Z,98312.84
2023-03-11T05:15:52.441Z,98334.81
2023-03-11T05:18:56.000Z,98332.84
2023-03-11T05:21:59.109Z,98316.37
2023-03-11T05:25:02.304Z,98326.31
2023-03-11T05:28:05.419Z,98333.47
2023-03-11T05:31:12.293Z,98331.78
2023-03-11T05:34:16.274Z,98338.44
2023-03-11T05:37:19.626Z,98334.56
2023-03-11T05:40:22.724Z,98361.28
2023-03-11T05:43:25.793Z,98366.34
2023-03-11T05:46:29.482Z,98365.47
2023-03-11T05:49:33.348Z,98367.63
2023-03-11T05:52:36.097Z,98385.75
2023-03-11T05:55:39.163Z,98369.59
2023-03-11T05:58:42.923Z,98360.22
2023-03-11T06:01:46.058Z,98367.88
2023-03-11T06:04:49.797Z,98368.28
2023-03-11T06:07:53.206Z,98383.59
2023-03-11T06:11:06.134Z,98391.41
2023-03-11T06:14:13.698Z,98406.38
2023-03-11T06:17:18.045Z,98394.63
2023-03-11T06:20:21.135Z,98393.84
2023-03-11T06:23:24.435Z,98394.13
2023-03-11T06:26:27.109Z,98403.88
2023-03-11T06:29:30.458Z,98415.72
2023-03-11T06:32:34.776Z,98437.75
2023-03-11T06:35:37.545Z,98435.09
2023-03-11T06:38:40.637Z,98427.62
2023-03-11T06:41:43.591Z,98427.06
2023-03-11T06:44:49.793Z,98442.38
2023-03-11T06:47:52.767Z,98452.38
2023-03-11T06:51:02.122Z,98473.06
2023-03-11T06:54:05.407Z,98465.12
2023-03-11T06:57:08.787Z,98463.03
2023-03-11T07:00:13.675Z,98458.97
2023-03-11T07:03:16.781Z,98466.25
2023-03-11T07:06:23.174Z,98456.03
2023-03-11T07:09:27.783Z,98457.94
2023-03-11T07:12:31.928Z,98469.19
2023-03-11T07:15:35.526Z,98481.44
2023-03-11T07:18:38.805Z,98467.69
2023-03-11T07:21:42.410Z,98475.34
2023-03-11T07:24:47.451Z,98474.78
2023-03-11T07:27:50.442Z,98491.47
2023-03-11T07:30:53.555Z,98499.47
2023-03-11T07:33:58.846Z,98469.31
2023-03-11T07:37:02.424Z,98494.72
2023-03-11T07:40:05.397Z,98494.13
2023-03-11T07:43:08.729Z,98482.34
2023-03-11T07:46:16.594Z,98480.81
2023-03-11T07:49:20.059Z,98488.16
2023-03-11T07:52:22.675Z,98516.91
2023-03-11T07:55:26.377Z,98490.25
2023-03-11T07:58:29.374Z,98498.84
2023-03-11T08:01:36.829Z,98529.09
2023-03-11T08:04:39.689Z,98524.44
2023-03-11T08:07:41.995Z,98534.78
2023-03-11T08:10:45.003Z,98512.72
2023-03-11T08:13:48.085Z,98527.12
2023-03-11T08:16:50.798Z,98547.47
2023-03-11T08:19:53.303Z,98560.41
2023-03-11T08:22:58.299Z,98563.31
2023-03-11T08:26:05.151Z,98587.34
2023-03-11T08:29:08.960Z,98610.50
2023-03-11T08:32:11.457Z,98586.97
2023-03-11T08:35:14.412Z,98576.03
2023-03-11T08:38:16.788Z,98592.06
2023-03-11T08:41:19.838Z,98570.09
2023-03-11T08:44:22.144Z,98617.44
2023-03-11T08:47:24.872Z,98597.13
2023-03-11T08:50:27.505Z,98607.31
2023-03-11T08:53:30.135Z,98608.47
2023-03-11T08:56:32.415Z,98616.59
2023-03-11T08:59:36.187Z,98620.47
2023-03-11T09:02:38.580Z,98641.97
2023-03-11T09:05:41.455Z,98652.56
2023-03-11T09:08:45.166Z,98607.84
2023-03-11T09:11:49.010Z,98605.50
2023-03-11T09:14:51.185Z,98597.75
2023-03-11T09:17:54.387Z,98624.91
2023-03-11T09:20:58.433Z,98605.63
2023-03-11T09:24:01.426Z,98618.41
2023-03-11T09:27:04.207Z,98617.38
2023-03-11T09:30:07.821Z,98610.03
2023-03-11T09:33:10.381Z,98620.84
2023-03-11T09:36:19.520Z,98619.84
2023-03-11T09:39:22.109Z,98596.97
2023-03-11T09:42:42.879Z,98596.78
2023-03-11T09:45:55.189Z,98598.31
2023-03-11T09:49:15.114Z,98589.63
2023-03-11T09:52:32.755Z,98609.59
2023-03-11T09:55:43.212Z,98605.50
2023-03-11T09:58:55.452Z,98581.31
2023-03-11T10:01:59.622Z,98560.22
2023-03-11T10:05:17.258Z,98592.09
2023-03-11T10:08:28.270Z,98567.00
2023-03-11T10:12:02.595Z,98590.69
2023-03-11T10:15:33.093Z,98592.06
2023-03-11T10:18:39.175Z,98601.91
2023-03-11T10:22:08.305Z,98577.97
2023-03-11T10:25:18.265Z,98585.75
2023-03-11T10:28:24.184Z,98609.28
2023-03-11T10:31:40.768Z,98612.53
2023-03-11T10:34:57.261Z,98629.31
2023-03-11T10:38:14.801Z,98630.03
2023-03-11T10:41:32.169Z,98665.00
2023-03-11T10:44:40.295Z,98657.66
2023-03-11T10:47:42.962Z,98668.41
2023-03-11T10:51:22.611Z,98694.94
2023-03-11T10:54:31.758Z,98674.37
2023-03-11T10:57:38.875Z,98706.37
2023-03-11T11:00:41.632Z,98714.84
2023-03-11T11:03:49.202Z,98702.34
2023-03-11T11:06:51.643Z,98680.06
2023-03-11T11:10:19.165Z,98712.31
2023-03-11T11:13:27.852Z,98721.69
2023-03-11T11:16:35.285Z,98696.16
2023-03-11T11:19:44.701Z,98724.34
2023-03-11T11:22:51.481Z,98702.94
2023-03-11T11:26:04.700Z,98715.34
2023-03-11T11:29:13.643Z,98702.94
2023-03-11T11:32:21.332Z,98716.19
2023-03-11T11:35:25.197Z,98701.41
2023-03-11T11:38:30.118Z,98724.31
2023-03-11T11:41:36.604Z,98729.28
2023-03-11T11:44:40.142Z,98728.81
2023-03-11T11:47:54.022Z,98739.94
2023-03-11T11:51:01.138Z,98739.03
2023-03-11T11:54:15.380Z,98755.22
2023-03-11T11:57:21.180Z,98738.91
2023-03-11T12:01:09.220Z,98735.97
2023-03-11T12:04:44.995Z,98734.06
2023-03-11T12:08:25.074Z,98719.22
2023-03-11T12:11:34.232Z,98709.78
2023-03-11T12:14:48.740Z,98725.22
2023-03-11T12:17:54.745Z,98737.88
2023-03-11T12:20:57.795Z,98735.00
2023-03-11T12:24:05.792Z,98729.75
2023-03-11T12:27:26.398Z,98731.09
2023-03-11T12:30:36.804Z,98707.97
2023-03-11T12:33:45.373Z,98745.25
2023-03-11T12:36:49.142Z,98739.47
2023-03-11T12:39:51.567Z,98745.66
2023-03-11T12:42:54.695Z,98769.66
2023-03-11T12:46:01.263Z,98776.13
2023-03-11T12:49:14.996Z,98768.41
2023-03-11T12:52:24.379Z,98758.56
2023-03-11T12:55:34.715Z,98769.25
2023-03-11T12:58:57.833Z,98782.41
2023-03-11T13:02:24.222Z,98785.28
2023-03-11T13:05:48.268Z,98820.94
2023-03-11T13:08:54.734Z,98799.50
2023-03-11T13:11:57.475Z,98808.34
2023-03-11T13:15:18.707Z,98834.03
2023-03-11T13:18:28.316Z,98820.91
2023-03-11T13:21:34.945Z,98841.50
2023-03-11T13:24:37.444Z,98849.53
2023-03-11T13:27:43.819Z,98854.44
2023-03-11T13:31:24.470Z,98843.41
2023-03-11T13:35:04.536Z,98846.44
2023-03-11T13:38:34.781Z,98842.56
2023-03-11T13:41:42.653Z,98852.53
2023-03-11T13:44:46.640Z,98872.59
2023-03-11T13:47:49.950Z,98882.22
2023-03-11T13:50:58.796Z,98892.41
2023-03-11T13:54:23.168Z,98893.94
2023-03-11T13:57:35.571Z,98927.72
2023-03-11T14:00:48.129Z,98880.28
2023-03-11T14:03:51.523Z,98934.13
2023-03-11T14:06:54.198Z,98908.59
2023-03-11T14:10:26.998Z,98931.34
2023-03-11T14:13:38.955Z,98955.94
2023-03-11T14:16:44.381Z,98935.31
2023-03-11T14:20:25.383Z,98938.97
2023-03-11T14:23:34.735Z,98945.41
2023-03-11T14:26:37.270Z,99002.53
2023-03-11T14:29:42.502Z,98946.50
2023-03-11T14:32:56.080Z,98937.41
2023-03-11T14:36:03.784Z,98950.31
2023-03-11T14:39:30.434Z,98959.91
2023-03-11T14:42:40.778Z,98976.22
2023-03-11T14:45:44.020Z,98962.63
2023-03-11T14:48:47.150Z,98976.09
2023-03-11T14:52:01.364Z,98975.34
2023-03-11T14:55:15.158Z,98978.69
2023-03-11T14:58:35.879Z,98989.56
2023-03-11T15:01:41.922Z,99008.81
2023-03-11T15:04:44.398Z,98994.13
2023-03-11T15:07:51.395Z,99015.47
2023-03-11T15:11:11.327Z,99023.00
2023-03-11T15:14:20.201Z,99029.41
2023-03-11T15:17:35.386Z,99033.41
2023-03-11T15:20:42.746Z,99047.13
2023-03-11T15:23:59.344Z,99059.12
2023-03-11T15:27:05.873Z,99043.72
2023-03-11T15:30:31.195Z,99052.78
2023-03-11T15:33:34.674Z,99047.28
2023-03-11T15:36:40.073Z,99053.94
2023-03-11T15:39:44.960Z,99059.81
2023-03-11T15:42:48.606Z,99088.16
2023-03-11T15:45:55.751Z,99067.50
2023-03-11T15:48:58.826Z,99077.13
2023-03-11T15:52:02.775Z,99083.22
2023-03-11T15:55:06.384Z,99066.72
2023-03-11T15:58:10.105Z,99085.69
2023-03-11T16:01:12.616Z,99107.03
2023-03-11T16:04:18.423Z,99117.87
2023-03-11T16:07:36.525Z,99114.16
2023-03-11T16:10:41.870Z,99126.16
2023-03-11T16:13:44.435Z,99134.47
2023-03-11T16:16:48.581Z,99127.41
2023-03-11T16:19:50.802Z,99123.13
2023-03-11T16:22:56.318Z,99128.47
2023-03-11T16:26:01.938Z,99140.37
2023-03-11T16:29:18.327Z,99124.41
2023-03-11T16:32:21.628Z,99137.47
2023-03-11T16:35:26.710Z,99137.53
2023-03-11T16:38:31.008Z,99138.44
2023-03-11T16:41:42.259Z,99146.47
2023-03-11T16:44:44.774Z,99160.41
2023-03-11T16:47:47.687Z,99172.19
2023-03-11T16:50:50.906Z,99183.63
2023-03-11T16:53:53.384Z,99190.34
2023-03-11T16:56:55.701Z,99204.66
2023-03-11T16:59:59.435Z,99215.22
2023-03-11T17:03:02.048Z,99230.00
2023-03-11T17:06:05.037Z,99235.28
2023-03-11T17:09:07.302Z,99249.75
2023-03-11T17:12:13.299Z,99245.59
2023-03-11T17:15:15.781Z,99251.25
2023-03-11T17:18:19.033Z,99253.47
2023-03-11T17:21:21.473Z,99270.84
2023-03-11T17:24:25.008Z,99262.00
2023-03-11T17:27:32.110Z,99275.31
2023-03-11T17:30:37.221Z,99284.50
2023-03-11T17:33:40.212Z,99301.63
2023-03-11T17:36:43.659Z,99303.44
2023-03-11T17:39:46.219Z,99309.47
2023-03-11T17:42:49.073Z,99317.53
2023-03-11T17:45:52.116Z,99325.13
2023-03-11T17:48:54.936Z,99317.31
2023-03-11T17:51:57.157Z,99336.19
2023-03-11T17:54:59.633Z,99320.75
2023-03-11T17:58:02.638Z,99323.34
2023-03-11T18:01:26.489Z,99333.62
2023-03-11T18:04:29.584Z,99333.56
2023-03-11T18:07:32.348Z,99330.75
2023-03-11T18:10:35.353Z,99341.41
2023-03-11T18:13:38.837Z,99350.53
2023-03-11T18:16:43.066Z,99350.47
2023-03-11T18:19:45.658Z,99355.91
2023-03-11T18:22:48.609Z,99366.81
2023-03-11T18:25:52.025Z,99374.44
2023-03-11T18:28:59.685Z,99372.62
2023-03-11T18:32:02.374Z,99373.88
2023-03-11T18:35:06.232Z,99376.94
2023-03-11T18:38:08.765Z,99393.84
2023-03-11T18:41:11.922Z,99392.91
2023-03-11T18:44:14.241Z,99392.63
2023-03-11T18:47:17.017Z,99398.41
2023-03-11T18:50:20.078Z,99405.72
2023-03-11T18:53:24.978Z,99411.59
2023-03-11T18:56:30.913Z,99426.25
2023-03-11T18:59:34.320Z,99425.66
2023-03-11T19:02:36.767Z,99424.34
2023-03-11T19:05:39.315Z,99430.19
2023-03-11T19:08:43.608Z,99432.19
2023-03-11T19:11:47.417Z,99432.03
2023-03-11T19:14:49.973Z,99450.16
2023-03-11T19:18:05.844Z,99437.22
2023-03-11T19:21:11.476Z,99444.16
2023-03-11T19:24:14.448Z,99446.28
2023-03-11T19:27:16.978Z,99439.91
2023-03-11T19:30:21.193Z,99451.47
2023-03-11T19:33:25.225Z,99442.59
2023-03-11T19:36:28.476Z,99456.66
2023-03-11T19:39:31.372Z,99459.31
2023-03-11T19:42:34.768Z,99444.66
2023-03-11T19:45:37.385Z,99447.75
2023-03-11T19:48:40.898Z,99468.41
2023-03-11T19:51:50.045Z,99468.56
2023-03-11T19:54:53.534Z,99466.41
2023-03-11T19:57:56.366Z,99477.88
2023-03-11T20:00:59.787Z,99480.34
2023-03-11T20:04:02.764Z,99471.72
2023-03-11T20:07:05.736Z,99480.91
2023-03-11T20:10:10.070Z,99463.75
2023-03-11T20:13:13.799Z,99474.50
2023-03-11T20:16:19.143Z,99456.59
2023-03-11T20:19:22.267Z,99459.78
2023-03-11T20:22:25.155Z,99455.22
2023-03-11T20:25:29.627Z,99450.16
2023-03-11T20:28:32.387Z,99452.06
2023-03-11T20:31:36.418Z,99454.38
2023-03-11T20:34:39.173Z,99457.78
2023-03-11T20:37:44.807Z,99456.50
2023-03-11T20:40:56.627Z,99460.87
2023-03-11T20:43:59.154Z,99473.72
2023-03-11T20:47:02.071Z,99466.56
2023-03-11T20:50:05.249Z,99477.00
2023-03-11T20:53:08.027Z,99484.63
2023-03-11T20:56:14.633Z,99483.09
2023-03-11T20:59:18.316Z,99478.06
2023-03-11T21:02:21.418Z,99495.91
2023-03-11T21:05:24.433Z,99497.28
2023-03-11T21:08:26.928Z,99494.69
2023-03-11T21:11:30.443Z,99493.91
2023-03-11T21:14:32.913Z,99497.06
2023-03-11T21:17:36.790Z,99488.31
2023-03-11T21:20:39.500Z,99494.44
2023-03-11T21:23:43.762Z,99510.03
2023-03-11T21:26:46.424Z,99514.53
2023-03-11T21:29:49.930Z,99524.31
2023-03-11T21:32:52.783Z,99549.69
2023-03-11T21:35:58.625Z,99542.00
2023-03-11T21:39:03.393Z,99543.31
2023-03-11T21:42:06.978Z,99548.69
2023-03-11T21:45:10.079Z,99553.47
2023-03-11T21:48:14.466Z,99547.72
2023-03-11T21:51:21.925Z,99546.31
2023-03-11T21:54:25.403Z,99554.72
2023-03-11T21:57:28.528Z,99566.16
2023-03-11T22:00:31.498Z,99560.41
2023-03-11T22:03:36.193Z,99559.13
2023-03-11T22:06:39.572Z,99553.59
2023-03-11T22:09:42.195Z,99549.91
2023-03-11T22:12:45.152Z,99561.53
2023-03-11T22:15:48.329Z,99562.88
2023-03-11T22:18:51.897Z,99569.56
2023-03-11T22:21:55.388Z,99572.84
2023-03-11T22:24:57.967Z,99586.78
2023-03-11T22:28:01.308Z,99588.25
2023-03-11T22:31:08.259Z,99596.19
2023-03-11T22:34:11.297Z,99601.62
2023-03-11T22:37:13.683Z,99603.25
2023-03-11T22:40:16.641Z,99601.44
2023-03-11T22:43:19.245Z,99605.47
2023-03-11T22:46:22.708Z,99615.28
2023-03-11T22:49:25.265Z,99618.66
2023-03-11T22:52:27.846Z,99625.25
2023-03-11T22:55:30.369Z,99636.66
2023-03-11T22:58:33.218Z,99633.94
2023-03-11T23:01:36.008Z,99650.03
2023-03-11T23:04:38.657Z,99649.16
2023-03-11T23:07:42.077Z,99647.62
2023-03-11T23:10:47.753Z,99633.41
2023-03-11T23:13:50.742Z,99633.75
2023-03-11T23:16:53.622Z,99642.47
2023-03-11T23:19:56.096Z,99650.28
2023-03-11T23:22:59.505Z,99642.41
2023-03-11T23:26:08.515Z,99647.25
2023-03-11T23:29:12.033Z,99644.47
2023-03-11T23:32:14.561Z,99656.53
2023-03-11T23:35:18.232Z,99660.44
2023-03-11T23:38:20.504Z,99661.88
2023-03-11T23:41:23.901Z,99675.34
2023-03-11T23:44:26.944Z,99673.53
2023-03-11T23:47:29.883Z,99676.06
2023-03-11T23:50:32.433Z,99684.00
2023-03-11T23:53:36.262Z,99685.91
2023-03-11T23:56:38.734Z,99685.94
2023-03-11T23:59:41.213Z,99685.22
